Time;durP1;ratioP1;P1;durP2;ratioP2;P2;SDS_P1;SDS_P2;PMS_P1;PMS_P2;Temp;Humidity;BMP_temperature;BMP_pressure;BME280_temperature;BME280_humidity;BME280_pressure;Samples;Min_cycle;Max_cycle;Signal;HPM_P1;HPM_P2
2023/01/18 00:00:14;;;;;;;6.43;4.20;;;-0.90;99.90;;;;;;6226643;23;37920;-80
2023/01/18 00:02:40;;;;;;;6.30;4.30;;;-0.90;99.90;;;;;;6224235;23;37736;-80
2023/01/18 00:05:07;;;;;;;9.60;4.70;;;-0.90;99.90;;;;;;6208200;23;39328;-80
2023/01/18 00:07:33;;;;;;;10.10;5.40;;;-0.90;99.90;;;;;;6188166;23;48963;-79
2023/01/18 00:10:02;;;;;;;8.77;5.20;;;-1.00;99.90;;;;;;6254961;22;36189;-80
2023/01/18 00:12:28;;;;;;;7.57;5.03;;;-1.10;99.90;;;;;;6257066;22;37956;-82
2023/01/18 00:14:55;;;;;;;8.00;5.13;;;-1.10;99.90;;;;;;6234890;22;37766;-79
2023/01/18 00:17:21;;;;;;;10.50;6.00;;;-1.20;99.90;;;;;;6260988;22;37043;-78
2023/01/18 00:19:47;;;;;;;9.27;6.17;;;-1.10;99.90;;;;;;6263255;22;36021;-79
2023/01/18 00:22:19;;;;;;;9.93;5.90;;;-1.20;99.90;;;;;;6237264;22;38022;-80
2023/01/18 00:24:45;;;;;;;10.35;6.43;;;-1.20;99.90;;;;;;6266455;22;37989;-79
2023/01/18 00:27:11;;;;;;;8.07;5.73;;;-1.20;99.90;;;;;;6265505;22;38230;-79
2023/01/18 00:29:37;;;;;;;9.20;5.27;;;-1.10;99.90;;;;;;6265208;22;36132;-80
2023/01/18 00:32:04;;;;;;;8.10;4.27;;;-1.20;99.90;;;;;;6239626;22;37676;-79
2023/01/18 00:34:31;;;;;;;7.53;4.80;;;-1.10;99.90;;;;;;6265381;22;37443;-78
2023/01/18 00:36:57;;;;;;;7.60;4.10;;;-1.00;99.90;;;;;;6267315;22;38866;-79
2023/01/18 00:39:23;;;;;;;7.87;3.60;;;-0.80;99.90;;;;;;6262705;22;36649;-80
2023/01/18 00:44:33;;;;;;;9.40;3.50;;;-0.50;99.90;;;;;;6263570;22;49436;-79
2023/01/18 00:46:59;;;;;;;9.20;3.67;;;-0.40;99.90;;;;;;6261687;22;38630;-79
2023/01/18 00:49:25;;;;;;;6.60;3.33;;;-0.20;99.90;;;;;;6259032;22;37008;-79
2023/01/18 00:51:52;;;;;;;8.17;3.27;;;-0.20;99.90;;;;;;6262335;22;39370;-79
2023/01/18 00:54:18;;;;;;;5.83;3.13;;;-0.10;99.90;;;;;;6256087;22;37536;-78
2023/01/18 00:56:44;;;;;;;4.93;3.27;;;-0.10;99.90;;;;;;6260171;22;38494;-77
2023/01/18 00:59:10;;;;;;;6.90;3.27;;;-0.10;99.90;;;;;;6230183;22;36551;-78
2023/01/18 01:01:36;;;;;;;6.27;3.17;;;0.00;99.90;;;;;;6231258;22;38014;-77
2023/01/18 01:06:47;;;;;;;7.43;3.10;;;0.00;99.90;;;;;;6257671;22;39373;-78
2023/01/18 01:09:21;;;;;;;7.57;3.23;;;-0.10;99.90;;;;;;6227871;22;38451;-78
2023/01/18 01:28:21;;;;;;;6.20;3.20;;;-0.30;99.90;;;;;;6251451;22;38308;-79
2023/01/18 01:30:47;;;;;;;4.50;2.73;;;-0.30;99.90;;;;;;6254983;22;37590;-78
2023/01/18 01:33:16;;;;;;;7.03;4.03;;;-0.10;99.90;;;;;;6241718;22;37354;-80
2023/01/18 01:35:42;;;;;;;4.53;3.23;;;-0.10;99.90;;;;;;6251859;22;37917;-78
2023/01/18 01:38:08;;;;;;;7.93;3.60;;;-0.10;99.90;;;;;;6249173;22;38251;-78
2023/01/18 01:40:34;;;;;;;6.50;3.80;;;-0.10;99.90;;;;;;6248212;22;36081;-78
2023/01/18 01:43:00;;;;;;;6.27;3.53;;;-0.10;99.90;;;;;;6252647;22;38796;-78
2023/01/18 01:45:29;;;;;;;8.60;4.00;;;-0.10;99.90;;;;;;6250378;22;46968;-78
2023/01/18 01:47:56;;;;;;;6.63;4.27;;;-0.20;99.90;;;;;;6254455;22;38344;-79
2023/01/18 01:50:38;;;;;;;10.73;4.07;;;-0.30;99.90;;;;;;6248300;22;36222;-78
2023/01/18 01:53:05;;;;;;;7.57;4.63;;;-0.40;99.90;;;;;;6227943;22;39084;-79
2023/01/18 01:55:34;;;;;;;6.67;3.90;;;-0.40;99.90;;;;;;6255046;22;37384;-78
2023/01/18 01:58:09;;;;;;;8.17;4.50;;;-0.50;99.90;;;;;;6253582;22;36569;-79
2023/01/18 02:03:17;;;;;;;6.47;4.07;;;-0.60;99.90;;;;;;6269491;22;20019;-78
2023/01/18 02:05:46;;;;;;;7.97;4.43;;;-0.40;99.90;;;;;;6313507;22;38962;-78
2023/01/18 02:08:21;;;;;;;8.30;4.00;;;-0.40;99.90;;;;;;6310773;22;37082;-78
2023/01/18 02:10:48;;;;;;;8.70;4.37;;;-0.50;99.90;;;;;;6315060;22;37588;-78
2023/01/18 02:13:15;;;;;;;9.77;4.30;;;-0.60;99.90;;;;;;6307466;22;38996;-78
2023/01/18 02:15:50;;;;;;;5.90;4.17;;;-0.60;99.90;;;;;;6314008;22;38086;-79
2023/01/18 02:18:23;;;;;;;6.43;4.10;;;-0.70;99.90;;;;;;6312794;22;37183;-79
2023/01/18 02:20:54;;;;;;;7.20;4.18;;;-0.80;99.90;;;;;;6310427;22;35867;-80
2023/01/18 02:23:45;;;;;;;4.75;3.58;;;-0.70;99.90;;;;;;6308416;22;38639;-79
2023/01/18 02:26:33;;;;;;;12.03;6.00;;;-0.60;99.90;;;;;;6311369;22;37061;-79
2023/01/18 02:29:11;;;;;;;8.83;4.57;;;-0.60;99.90;;;;;;6310187;22;38603;-78
2023/01/18 02:31:58;;;;;;;7.13;4.10;;;-0.60;99.90;;;;;;6300479;22;46919;-78
2023/01/18 02:34:46;;;;;;;9.00;4.40;;;-0.60;99.90;;;;;;6301547;22;48125;-79
2023/01/18 02:37:22;;;;;;;6.77;4.33;;;-0.70;99.90;;;;;;6316372;22;39042;-79
2023/01/18 02:40:33;;;;;;;8.50;4.00;;;-0.80;99.90;;;;;;6310866;22;37082;-78
2023/01/18 02:48:44;;;;;;;8.13;4.53;;;-1.00;99.90;;;;;;6299149;22;49967;-78
2023/01/18 02:51:11;;;;;;;8.73;4.37;;;-1.10;99.90;;;;;;6314148;22;38622;-78
2023/01/18 02:53:41;;;;;;;7.03;4.03;;;-1.10;99.90;;;;;;6312734;22;37449;-79
2023/01/18 02:56:12;;;;;;;11.77;4.47;;;-1.10;99.90;;;;;;6312106;22;37845;-79
2023/01/18 02:58:43;;;;;;;8.83;4.47;;;-1.10;99.90;;;;;;6312664;22;38823;-80
2023/01/18 03:01:27;;;;;;;9.23;4.30;;;-0.90;99.90;;;;;;6312621;22;39397;-79
2023/01/18 03:03:58;;;;;;;9.53;4.80;;;-0.90;99.90;;;;;;6313108;22;37633;-79
2023/01/18 03:06:27;;;;;;;9.90;4.90;;;-0.70;99.90;;;;;;6309657;22;37709;-79
2023/01/18 03:08:56;;;;;;;11.07;5.00;;;-0.50;99.90;;;;;;6308618;22;39703;-78
2023/01/18 03:11:34;;;;;;;10.27;4.77;;;-0.60;99.90;;;;;;6306429;22;37202;-79
2023/01/18 03:14:10;;;;;;;8.63;4.70;;;-0.60;99.90;;;;;;6308028;22;35981;-80
2023/01/18 03:16:58;;;;;;;13.03;5.33;;;-0.20;99.90;;;;;;6297548;22;47320;-80
2023/01/18 03:20:06;;;;;;;9.53;5.33;;;0.00;99.90;;;;;;6304019;22;37289;-78
2023/01/18 03:25:29;;;;;;;9.13;4.85;;;0.10;99.90;;;;;;6313189;22;38176;-78
2023/01/18 03:33:46;;;;;;;9.63;5.20;;;-0.30;99.90;;;;;;6303875;22;49430;-78
2023/01/18 03:36:23;;;;;;;10.97;5.67;;;-0.40;99.90;;;;;;6312652;22;36281;-78
2023/01/18 03:38:57;;;;;;;9.10;5.33;;;-0.50;99.90;;;;;;6311173;22;38866;-78
2023/01/18 03:41:27;;;;;;;10.50;5.53;;;-0.50;99.90;;;;;;6311187;22;40319;-77
2023/01/18 03:43:58;;;;;;;12.00;4.90;;;-0.50;99.90;;;;;;6314425;22;38278;-77
2023/01/18 03:46:28;;;;;;;9.20;6.10;;;-0.60;99.90;;;;;;6314890;22;37288;-79
2023/01/18 03:48:55;;;;;;;9.30;4.80;;;-0.60;99.90;;;;;;6314404;22;38043;-78
2023/01/18 03:51:39;;;;;;;8.13;4.60;;;-0.60;99.90;;;;;;6313158;22;38448;-79
2023/01/18 03:54:22;;;;;;;7.53;4.70;;;-0.60;99.90;;;;;;6307426;22;36818;-78
2023/01/18 03:57:11;;;;;;;12.53;4.87;;;-0.50;99.90;;;;;;6314299;22;36354;-78
2023/01/18 03:59:38;;;;;;;7.93;4.53;;;-0.50;99.90;;;;;;6297868;22;46878;-78
2023/01/18 04:02:06;;;;;;;8.63;5.00;;;-0.50;99.90;;;;;;6314651;22;39505;-78
2023/01/18 04:04:33;;;;;;;9.53;4.80;;;-0.50;99.90;;;;;;6316624;22;38143;-78
2023/01/18 04:06:59;;;;;;;9.27;4.90;;;-0.30;99.90;;;;;;6312564;22;36496;-77
2023/01/18 04:09:25;;;;;;;8.77;4.30;;;-0.30;99.90;;;;;;6310922;22;38120;-79
2023/01/18 04:11:52;;;;;;;7.10;4.77;;;-0.40;99.90;;;;;;6316631;22;38595;-77
2023/01/18 04:14:18;;;;;;;9.77;4.83;;;-0.50;99.90;;;;;;6311667;22;37107;-78
2023/01/18 04:16:44;;;;;;;9.73;4.70;;;-0.50;99.90;;;;;;6311823;22;35839;-79
2023/01/18 04:19:10;;;;;;;9.43;4.33;;;-0.50;99.90;;;;;;6312762;22;39695;-78
2023/01/18 04:21:37;;;;;;;11.00;4.90;;;-0.50;99.90;;;;;;6315643;22;39642;-78
2023/01/18 04:24:04;;;;;;;14.57;5.83;;;-0.70;99.90;;;;;;6309698;22;38456;-77
2023/01/18 04:26:33;;;;;;;11.93;5.13;;;-0.80;99.90;;;;;;6312403;22;38412;-80
2023/01/18 04:28:59;;;;;;;10.53;5.30;;;-0.70;99.90;;;;;;6309165;22;37863;-78
2023/01/18 04:31:25;;;;;;;8.77;4.73;;;-0.40;99.90;;;;;;6307991;22;37299;-79
2023/01/18 04:33:52;;;;;;;10.53;5.40;;;-0.30;99.90;;;;;;6307645;22;39041;-78
2023/01/18 04:36:19;;;;;;;11.13;5.17;;;-0.30;99.90;;;;;;6304933;22;37249;-79
2023/01/18 04:38:45;;;;;;;8.93;5.20;;;-0.40;99.90;;;;;;6307902;22;39765;-79
2023/01/18 04:41:11;;;;;;;9.83;4.97;;;-0.50;99.90;;;;;;6306799;22;38344;-78
2023/01/18 04:44:05;;;;;;;9.27;5.13;;;-0.50;99.90;;;;;;6310519;22;38001;-78
2023/01/18 04:46:31;;;;;;;9.20;4.60;;;-0.60;99.90;;;;;;6298713;22;47740;-77
2023/01/18 04:48:57;;;;;;;11.93;6.17;;;-0.60;99.90;;;;;;6308682;22;38844;-79
2023/01/18 04:51:24;;;;;;;8.50;4.80;;;-0.60;99.90;;;;;;6305469;22;37312;-79
2023/01/18 04:53:50;;;;;;;9.67;4.83;;;-0.60;99.90;;;;;;6301825;22;37133;-78
2023/01/18 04:56:16;;;;;;;8.17;4.80;;;-0.50;99.90;;;;;;6312273;22;38183;-77
2023/01/18 04:58:42;;;;;;;13.80;7.03;;;-0.50;99.90;;;;;;6317084;22;37970;-79
2023/01/18 05:01:11;;;;;;;9.30;5.17;;;-0.50;99.90;;;;;;6310439;22;39142;-77
2023/01/18 05:03:38;;;;;;;14.93;5.70;;;-0.50;99.90;;;;;;6310606;22;37009;-77
2023/01/18 05:06:08;;;;;;;8.33;4.53;;;-0.40;99.90;;;;;;6309016;22;37808;-78
2023/01/18 05:08:34;;;;;;;11.63;4.57;;;-0.40;99.90;;;;;;6307647;22;37670;-77
2023/01/18 05:11:05;;;;;;;12.87;5.60;;;-0.50;99.90;;;;;;6313856;22;37996;-79
2023/01/18 05:13:32;;;;;;;9.30;5.23;;;-0.30;99.90;;;;;;6310553;22;48158;-78
2023/01/18 05:15:59;;;;;;;9.53;4.53;;;-0.30;99.90;;;;;;6316909;22;35908;-79
2023/01/18 05:18:26;;;;;;;12.30;5.03;;;-0.30;99.90;;;;;;6314830;22;38918;-78
2023/01/18 05:20:52;;;;;;;10.53;4.60;;;-0.30;99.90;;;;;;6316985;22;39447;-79
2023/01/18 05:23:18;;;;;;;8.80;4.77;;;-0.40;99.90;;;;;;6313637;22;38478;-78
2023/01/18 05:25:45;;;;;;;8.20;4.30;;;-0.40;99.90;;;;;;6312369;22;37407;-79
2023/01/18 05:28:11;;;;;;;13.60;5.10;;;-0.50;99.90;;;;;;6303303;22;37906;-77
2023/01/18 05:30:39;;;;;;;8.80;4.93;;;-0.50;99.90;;;;;;6316408;22;38067;-78
2023/01/18 05:33:05;;;;;;;8.77;4.37;;;-0.60;99.90;;;;;;6310178;22;36481;-78
2023/01/18 05:35:32;;;;;;;12.40;5.27;;;-0.60;99.90;;;;;;6310403;22;38700;-78
2023/01/18 05:37:58;;;;;;;10.27;4.70;;;-0.60;99.90;;;;;;6312492;22;38315;-78
2023/01/18 05:40:24;;;;;;;7.50;4.53;;;-0.40;99.90;;;;;;6310947;22;38742;-78
2023/01/18 05:43:03;;;;;;;;;;;;;;;;;;;;;
2023/01/18 05:45:30;;;;;;;14.43;5.57;;;-0.40;99.90;;;;;;6309528;22;48883;-78
2023/01/18 05:47:56;;;;;;;10.03;5.40;;;-0.20;99.90;;;;;;6310696;22;39959;-78
2023/01/18 05:50:22;;;;;;;9.13;4.63;;;-0.10;99.90;;;;;;6303593;22;38851;-75
2023/01/18 05:52:48;;;;;;;10.00;5.00;;;-0.20;99.90;;;;;;6301440;22;38082;-75
2023/01/18 05:55:14;;;;;;;9.90;5.23;;;-0.20;99.90;;;;;;6298826;22;38012;-76
2023/01/18 05:57:40;;;;;;;11.53;6.10;;;-0.10;99.90;;;;;;6303533;22;40373;-76
2023/01/18 06:00:10;;;;;;;12.83;5.30;;;-0.10;99.90;;;;;;6297976;22;37355;-76
2023/01/18 06:02:36;;;;;;;8.47;5.77;;;-0.10;99.90;;;;;;6285145;22;37681;-76
2023/01/18 06:05:02;;;;;;;12.17;5.63;;;0.00;99.90;;;;;;6304225;22;37186;-75
2023/01/18 06:07:28;;;;;;;8.80;5.40;;;0.10;99.90;;;;;;6305082;22;40167;-75
2023/01/18 06:09:54;;;;;;;11.47;5.20;;;0.30;99.90;;;;;;6303778;22;37413;-75
2023/01/18 06:12:20;;;;;;;8.70;5.00;;;0.30;99.90;;;;;;6303180;22;38065;-75
2023/01/18 06:14:46;;;;;;;11.57;6.03;;;0.30;99.90;;;;;;6304586;22;37243;-75
2023/01/18 06:17:13;;;;;;;13.23;5.90;;;0.50;99.90;;;;;;6300347;22;38817;-77
2023/01/18 06:19:39;;;;;;;15.20;5.70;;;0.50;99.90;;;;;;6303902;22;37260;-75
2023/01/18 06:22:05;;;;;;;12.97;6.33;;;0.40;99.90;;;;;;6299276;22;37756;-75
2023/01/18 06:24:31;;;;;;;9.70;5.30;;;0.30;99.90;;;;;;6292159;22;37241;-74
2023/01/18 06:26:59;;;;;;;8.83;4.90;;;0.40;99.90;;;;;;6303678;22;38637;-75
2023/01/18 06:29:25;;;;;;;13.73;5.00;;;0.50;99.90;;;;;;6300613;22;38486;-75
2023/01/18 06:31:51;;;;;;;11.63;6.23;;;0.60;99.90;;;;;;6301533;22;38500;-74
2023/01/18 06:34:17;;;;;;;14.57;5.57;;;0.80;99.90;;;;;;6299443;22;37041;-74
2023/01/18 06:36:44;;;;;;;13.07;6.20;;;0.80;99.90;;;;;;6303231;22;39625;-75
2023/01/18 06:39:10;;;;;;;8.73;5.00;;;0.80;99.90;;;;;;6303050;22;38440;-75
2023/01/18 06:41:36;;;;;;;9.53;5.27;;;0.80;99.90;;;;;;6302998;22;39111;-74
2023/01/18 06:44:02;;;;;;;11.27;5.53;;;0.80;99.90;;;;;;6298063;22;36247;-74
2023/01/18 06:46:28;;;;;;;10.47;5.70;;;0.70;99.90;;;;;;6301982;22;38588;-74
2023/01/18 06:48:55;;;;;;;10.50;4.93;;;0.70;99.90;;;;;;6302421;22;37108;-73
2023/01/18 06:51:21;;;;;;;13.13;6.17;;;0.90;99.90;;;;;;6302875;22;37892;-74
2023/01/18 06:53:48;;;;;;;12.20;5.27;;;0.90;99.90;;;;;;6307060;22;36524;-75
2023/01/18 06:56:15;;;;;;;10.93;5.47;;;1.00;99.90;;;;;;6302422;22;38938;-75
2023/01/18 06:58:41;;;;;;;9.77;5.60;;;1.10;99.90;;;;;;6301569;22;38705;-72
2023/01/18 07:01:07;;;;;;;9.47;5.77;;;1.20;99.90;;;;;;6302961;22;37786;-74
2023/01/18 07:03:34;;;;;;;9.90;5.37;;;1.30;99.90;;;;;;6305194;22;37026;-74
2023/01/18 07:06:02;;;;;;;11.20;6.00;;;1.40;99.90;;;;;;6305612;22;38712;-73
2023/01/18 07:08:33;;;;;;;14.67;6.80;;;1.40;99.90;;;;;;6300859;22;47261;-73
2023/01/18 07:11:04;;;;;;;11.83;6.67;;;1.30;99.90;;;;;;6303802;22;37284;-74
2023/01/18 07:13:30;;;;;;;13.20;6.87;;;1.40;99.90;;;;;;6299034;22;48062;-75
2023/01/18 07:15:58;;;;;;;11.67;6.47;;;1.40;99.90;;;;;;6307438;22;38923;-76
2023/01/18 07:18:25;;;;;;;14.10;6.50;;;1.40;99.90;;;;;;6301095;22;37235;-76
2023/01/18 07:20:59;;;;;;;16.03;7.40;;;1.30;99.90;;;;;;6304704;22;38190;-76
2023/01/18 07:23:27;;;;;;;11.20;6.93;;;1.30;99.90;;;;;;6304645;22;37396;-75
2023/01/18 07:26:15;;;;;;;14.47;8.50;;;1.30;99.90;;;;;;6306056;22;39282;-75
2023/01/18 07:28:42;;;;;;;12.43;7.87;;;1.40;99.90;;;;;;6295037;22;48344;-74
2023/01/18 07:31:09;;;;;;;12.37;8.60;;;1.50;99.90;;;;;;6300955;22;37813;-74
2023/01/18 07:33:36;;;;;;;19.07;9.47;;;1.50;99.90;;;;;;6304534;22;38455;-74
2023/01/18 07:36:05;;;;;;;13.23;8.53;;;1.40;99.90;;;;;;6303986;22;37670;-74
2023/01/18 07:38:32;;;;;;;12.27;8.10;;;1.40;99.90;;;;;;6304181;22;37306;-74
2023/01/18 07:41:04;;;;;;;16.40;10.87;;;1.40;99.90;;;;;;6304470;22;36834;-74
2023/01/18 07:43:31;;;;;;;15.27;8.65;;;1.40;99.90;;;;;;6296134;22;47446;-73
2023/01/18 07:45:58;;;;;;;12.07;8.77;;;1.30;99.90;;;;;;6308101;22;39588;-74
2023/01/18 07:48:26;;;;;;;13.97;9.00;;;1.30;99.90;;;;;;6304738;22;39154;-75
2023/01/18 07:51:03;;;;;;;15.77;9.10;;;1.30;99.90;;;;;;6308622;22;37972;-75
2023/01/18 07:53:31;;;;;;;13.60;8.50;;;1.30;99.90;;;;;;6293820;22;49079;-75
2023/01/18 07:56:02;;;;;;;15.83;10.10;;;1.20;99.90;;;;;;6305711;22;37987;-74
2023/01/18 07:58:28;;;;;;;16.13;9.30;;;1.20;99.90;;;;;;6304388;22;48023;-73
2023/01/18 08:01:00;;;;;;;12.93;8.83;;;1.20;99.90;;;;;;6305624;22;37647;-74
2023/01/18 08:03:26;;;;;;;20.67;10.40;;;1.30;99.90;;;;;;6303371;22;37174;-75
2023/01/18 08:05:52;;;;;;;20.50;11.47;;;1.20;99.90;;;;;;6302723;22;37590;-73
2023/01/18 08:08:18;;;;;;;22.20;11.40;;;1.20;99.90;;;;;;6302764;22;37203;-74
2023/01/18 08:10:44;;;;;;;24.07;11.17;;;1.20;99.90;;;;;;6304408;22;37715;-74
2023/01/18 08:13:10;;;;;;;21.27;12.50;;;1.20;99.90;;;;;;6303776;22;37525;-73
2023/01/18 08:15:38;;;;;;;21.10;12.80;;;1.30;99.90;;;;;;6305584;22;38832;-77
2023/01/18 08:18:05;;;;;;;20.80;12.10;;;1.40;99.90;;;;;;6302310;22;37611;-75
2023/01/18 08:20:32;;;;;;;18.83;10.80;;;1.40;99.90;;;;;;6304684;22;36990;-73
2023/01/18 08:22:59;;;;;;;14.70;9.27;;;1.40;99.90;;;;;;6304188;22;36351;-74
2023/01/18 08:25:28;;;;;;;16.00;9.27;;;1.40;99.90;;;;;;6305118;22;38862;-74
2023/01/18 08:27:59;;;;;;;17.83;10.30;;;1.50;99.90;;;;;;6306728;22;39306;-74
2023/01/18 08:30:27;;;;;;;13.03;9.57;;;1.40;99.90;;;;;;6300941;22;38757;-73
2023/01/18 08:32:55;;;;;;;17.30;8.43;;;1.40;99.90;;;;;;6308323;22;37619;-74
2023/01/18 08:35:21;;;;;;;16.30;9.23;;;1.50;99.90;;;;;;6304089;22;39084;-74
2023/01/18 08:37:47;;;;;;;13.60;8.33;;;1.50;99.90;;;;;;6307026;22;38310;-74
2023/01/18 08:40:14;;;;;;;14.27;9.37;;;1.50;99.90;;;;;;6305757;22;38177;-73
2023/01/18 08:42:40;;;;;;;19.47;8.53;;;1.50;99.90;;;;;;6304168;22;37043;-74
2023/01/18 08:45:06;;;;;;;13.43;8.57;;;1.60;99.90;;;;;;6301899;22;37441;-73
2023/01/18 08:47:32;;;;;;;17.27;9.17;;;1.60;99.90;;;;;;6308779;22;38424;-74
2023/01/18 08:49:59;;;;;;;16.80;8.93;;;1.60;99.90;;;;;;6309331;22;38125;-74
2023/01/18 08:52:26;;;;;;;12.43;9.27;;;1.60;99.90;;;;;;6304880;22;38191;-73
2023/01/18 08:54:52;;;;;;;18.63;8.77;;;1.60;99.90;;;;;;6303333;22;37615;-73
2023/01/18 08:57:18;;;;;;;15.97;9.13;;;1.60;99.90;;;;;;6305475;22;39192;-73
2023/01/18 08:59:44;;;;;;;12.13;8.60;;;1.60;99.90;;;;;;6303318;22;37681;-73
2023/01/18 09:02:10;;;;;;;13.67;8.23;;;1.70;99.90;;;;;;6303179;22;37236;-73
2023/01/18 09:04:36;;;;;;;16.40;8.83;;;1.70;99.90;;;;;;6307365;22;38461;-74
2023/01/18 09:07:02;;;;;;;15.27;9.00;;;1.70;99.90;;;;;;6306906;22;38394;-73
2023/01/18 09:09:28;;;;;;;16.93;9.17;;;1.80;99.90;;;;;;6296197;22;38876;-74
2023/01/18 09:11:57;;;;;;;16.87;9.40;;;1.80;99.90;;;;;;6301412;22;36660;-74
2023/01/18 09:14:23;;;;;;;14.97;9.67;;;1.90;99.90;;;;;;6306453;22;37892;-73
2023/01/18 09:16:49;;;;;;;13.50;9.07;;;2.00;99.90;;;;;;6308008;22;37233;-73
2023/01/18 09:19:15;;;;;;;11.43;8.30;;;2.00;99.90;;;;;;6303897;22;38226;-73
2023/01/18 09:21:43;;;;;;;12.97;9.03;;;2.00;99.90;;;;;;6311827;22;36951;-74
2023/01/18 09:24:09;;;;;;;15.53;9.77;;;2.00;99.90;;;;;;6281102;22;37593;-75
2023/01/18 09:26:36;;;;;;;16.07;10.60;;;2.00;99.90;;;;;;6311504;22;38537;-74
2023/01/18 09:29:02;;;;;;;18.43;9.13;;;2.10;99.90;;;;;;6311632;22;36854;-74
2023/01/18 09:31:29;;;;;;;13.27;8.77;;;2.10;99.90;;;;;;6312310;22;36009;-75
2023/01/18 09:33:56;;;;;;;15.63;9.47;;;2.10;99.90;;;;;;6314653;22;38597;-75
2023/01/18 09:36:25;;;;;;;16.53;8.83;;;2.20;99.90;;;;;;6310467;22;37485;-75
2023/01/18 09:38:52;;;;;;;12.97;8.33;;;2.20;99.90;;;;;;6305061;22;38518;-75
2023/01/18 09:41:34;;;;;;;11.87;8.90;;;2.20;99.90;;;;;;6302229;22;36747;-74
2023/01/18 09:44:19;;;;;;;13.40;8.27;;;2.30;99.90;;;;;;6306970;22;40423;-75
2023/01/18 09:46:52;;;;;;;16.87;8.77;;;2.40;99.90;;;;;;6301178;22;47159;-74
2023/01/18 09:49:23;;;;;;;14.57;8.60;;;2.40;99.90;;;;;;6306903;22;38563;-73
2023/01/18 09:52:13;;;;;;;15.17;10.33;;;2.50;99.90;;;;;;6307763;22;37241;-74
2023/01/18 09:55:14;;;;;;;11.10;7.93;;;2.60;99.90;;;;;;6304254;22;48458;-74
2023/01/18 09:57:54;;;;;;;17.00;9.60;;;2.60;99.90;;;;;;6268938;22;47056;-75
2023/01/18 10:00:25;;;;;;;14.20;8.73;;;2.60;99.90;;;;;;6305543;22;38314;-74
2023/01/18 10:03:02;;;;;;;14.03;8.77;;;2.70;99.90;;;;;;6303334;22;36292;-74
2023/01/18 10:05:35;;;;;;;17.53;8.40;;;2.80;99.90;;;;;;6305929;22;48830;-74
2023/01/18 10:08:06;;;;;;;12.97;8.77;;;2.80;99.90;;;;;;6303634;22;37498;-75
2023/01/18 10:10:38;;;;;;;14.17;9.27;;;2.80;99.90;;;;;;6330298;22;47384;-74
2023/01/18 10:13:39;;;;;;;13.97;9.00;;;2.90;99.90;;;;;;6306264;22;37300;-73
2023/01/18 10:16:15;;;;;;;13.27;8.27;;;2.90;99.90;;;;;;6305604;22;38801;-74
2023/01/18 10:18:44;;;;;;;13.83;8.50;;;3.00;99.90;;;;;;6309034;22;38147;-73
2023/01/18 10:21:40;;;;;;;13.07;8.37;;;3.20;99.90;;;;;;6303935;22;37248;-74
2023/01/18 10:24:18;;;;;;;12.03;8.77;;;3.20;99.90;;;;;;6304917;22;37873;-74
2023/01/18 10:26:47;;;;;;;12.63;8.83;;;3.30;99.90;;;;;;6304753;22;39088;-74
2023/01/18 10:29:38;;;;;;;12.97;8.93;;;3.40;99.90;;;;;;6302591;22;38072;-74
2023/01/18 10:32:10;;;;;;;14.10;8.43;;;3.40;99.90;;;;;;6306443;22;38250;-75
2023/01/18 10:34:42;;;;;;;13.02;8.75;;;3.40;99.90;;;;;;6306283;22;36149;-74
2023/01/18 10:37:26;;;;;;;15.48;9.00;;;3.40;99.90;;;;;;6302530;22;37875;-74
2023/01/18 10:40:00;;;;;;;13.00;8.23;;;3.50;99.90;;;;;;6306208;22;39182;-74
2023/01/18 10:42:34;;;;;;;19.10;7.93;;;3.50;99.90;;;;;;6304683;22;47058;-74
2023/01/18 10:45:00;;;;;;;13.53;8.17;;;3.50;99.90;;;;;;6306356;22;36758;-75
2023/01/18 10:47:27;;;;;;;12.77;7.90;;;3.60;99.90;;;;;;6304021;22;46420;-75
2023/01/18 10:49:58;;;;;;;15.27;8.43;;;3.60;99.90;;;;;;6307267;22;38326;-75
2023/01/18 10:52:31;;;;;;;12.00;7.00;;;3.60;99.90;;;;;;6303278;22;37054;-75
2023/01/18 10:55:06;;;;;;;10.27;7.00;;;3.70;99.90;;;;;;6305064;22;36386;-75
2023/01/18 10:58:01;;;;;;;11.10;7.13;;;3.80;99.90;;;;;;6300873;22;46997;-75
2023/01/18 11:00:34;;;;;;;12.83;6.57;;;4.00;99.90;;;;;;6281746;22;47068;-79
2023/01/18 11:03:03;;;;;;;10.40;6.18;;;4.20;99.90;;;;;;6302266;22;38080;-75
2023/01/18 11:05:39;;;;;;;13.10;6.07;;;4.20;99.90;;;;;;6303552;22;48977;-76
2023/01/18 11:08:32;;;;;;;13.93;5.00;;;4.10;99.90;;;;;;6289466;22;37918;-76
2023/01/18 11:11:00;;;;;;;10.27;5.57;;;4.10;99.90;;;;;;6301199;22;37422;-75
2023/01/18 11:13:33;;;;;;;8.57;4.60;;;4.10;99.90;;;;;;6298436;22;37207;-75
2023/01/18 11:16:08;;;;;;;10.30;5.13;;;4.10;99.90;;;;;;6305049;22;37496;-75
2023/01/18 11:18:35;;;;;;;8.13;4.53;;;4.10;99.90;;;;;;6301516;22;49433;-75
2023/01/18 11:21:01;;;;;;;8.37;4.67;;;4.10;99.90;;;;;;6301367;22;37756;-75
2023/01/18 11:23:34;;;;;;;7.77;4.60;;;4.20;99.90;;;;;;6301810;22;47242;-76
2023/01/18 11:26:06;;;;;;;12.50;5.20;;;4.10;99.90;;;;;;6304245;22;37325;-75
2023/01/18 11:28:50;;;;;;;7.93;3.43;;;4.20;99.90;;;;;;6303286;22;48620;-74
2023/01/18 11:31:24;;;;;;;6.07;3.43;;;4.30;99.90;;;;;;6300900;22;37334;-75
2023/01/18 11:33:56;;;;;;;8.73;3.47;;;4.40;99.90;;;;;;6304030;22;39213;-75
2023/01/18 11:36:52;;;;;;;7.85;2.78;;;4.50;99.90;;;;;;6305990;22;37867;-74
2023/01/18 11:39:27;;;;;;;6.00;2.57;;;4.60;99.90;;;;;;6296764;22;38800;-75
2023/01/18 11:42:19;;;;;;;9.93;3.63;;;4.80;99.90;;;;;;6304211;22;37365;-75
2023/01/18 11:44:48;;;;;;;9.57;2.47;;;4.90;99.90;;;;;;6295656;22;46951;-77
2023/01/18 11:47:22;;;;;;;4.83;2.27;;;4.90;99.90;;;;;;6303155;22;38599;-76
2023/01/18 11:50:00;;;;;;;5.67;2.20;;;5.00;99.90;;;;;;6306821;22;39656;-75
2023/01/18 11:52:47;;;;;;;6.50;2.47;;;5.10;99.90;;;;;;6302059;22;47619;-78
2023/01/18 11:55:32;;;;;;;4.60;2.50;;;5.20;99.90;;;;;;6302327;22;37091;-76
2023/01/18 11:57:59;;;;;;;5.23;2.40;;;5.20;99.90;;;;;;6302670;22;36428;-74
2023/01/18 12:00:30;;;;;;;4.33;2.63;;;5.20;99.90;;;;;;6302112;22;38726;-74
2023/01/18 12:03:19;;;;;;;5.63;2.50;;;5.20;99.90;;;;;;6302864;22;40058;-74
2023/01/18 12:05:53;;;;;;;6.33;2.80;;;5.20;99.90;;;;;;6294753;22;47099;-74
2023/01/18 12:08:37;;;;;;;8.50;2.70;;;5.20;99.90;;;;;;6299555;22;36055;-75
2023/01/18 12:11:27;;;;;;;6.57;3.40;;;5.10;99.90;;;;;;6302146;22;39052;-74
2023/01/18 12:14:12;;;;;;;4.63;2.40;;;5.20;99.90;;;;;;6302150;22;38266;-76
2023/01/18 12:16:50;;;;;;;8.07;3.17;;;5.40;99.90;;;;;;6299324;22;47234;-75
2023/01/18 12:19:42;;;;;;;7.60;3.00;;;5.70;99.90;;;;;;6302455;22;35857;-75
2023/01/18 12:22:25;;;;;;;3.83;2.70;;;5.70;99.90;;;;;;6273338;22;38764;-76
2023/01/18 12:25:00;;;;;;;5.22;2.63;;;5.60;99.90;;;;;;6303359;22;38197;-74
2023/01/18 12:27:38;;;;;;;3.93;2.13;;;5.60;99.90;;;;;;6301943;22;36741;-74
2023/01/18 12:30:13;;;;;;;9.07;3.40;;;5.60;99.90;;;;;;6303844;22;37322;-74
2023/01/18 12:33:03;;;;;;;4.60;2.70;;;5.60;99.90;;;;;;6305011;22;48937;-75
2023/01/18 12:35:35;;;;;;;6.57;2.33;;;5.40;99.90;;;;;;6299505;22;47131;-74
2023/01/18 12:38:21;;;;;;;4.95;2.38;;;5.20;99.90;;;;;;6305881;22;39353;-75
2023/01/18 12:41:14;;;;;;;4.13;1.60;;;4.90;99.90;;;;;;6305384;22;38174;-75
2023/01/18 12:44:02;;;;;;;3.85;1.52;;;4.80;99.90;;;;;;6285370;22;48857;-75
2023/01/18 12:46:37;;;;;;;2.83;1.00;;;4.70;99.90;;;;;;6303537;22;47895;-75
2023/01/18 12:49:17;;;;;;;1.53;0.70;;;4.60;99.90;;;;;;6307641;22;38802;-76
2023/01/18 12:51:53;;;;;;;2.20;0.70;;;4.70;99.90;;;;;;6306096;22;37506;-75
2023/01/18 12:54:28;;;;;;;2.20;0.70;;;4.80;99.90;;;;;;6301965;22;39383;-75
2023/01/18 12:56:56;;;;;;;1.60;0.67;;;4.90;99.90;;;;;;6303653;22;37883;-75
2023/01/18 12:59:35;;;;;;;7.10;0.97;;;5.00;99.90;;;;;;6296699;22;37715;-76
2023/01/18 13:02:22;;;;;;;1.30;0.83;;;5.10;99.90;;;;;;6303923;22;37255;-74
2023/01/18 13:05:16;;;;;;;7.03;1.60;;;5.30;99.90;;;;;;6299444;22;47108;-74
2023/01/18 13:07:47;;;;;;;3.83;2.20;;;5.50;99.90;;;;;;6302218;22;47080;-73
2023/01/18 13:10:21;;;;;;;5.43;2.20;;;5.60;99.90;;;;;;6302464;22;36689;-75
2023/01/18 13:12:49;;;;;;;6.27;2.23;;;5.60;99.90;;;;;;6305151;22;36995;-74
2023/01/18 13:15:45;;;;;;;6.70;2.50;;;5.70;99.90;;;;;;6303827;22;39084;-74
2023/01/18 13:18:22;;;;;;;9.27;2.10;;;5.70;99.90;;;;;;6300156;22;38351;-74
2023/01/18 13:21:00;;;;;;;6.20;2.37;;;5.70;99.90;;;;;;6305505;22;38182;-74
2023/01/18 13:23:58;;;;;;;3.73;1.60;;;5.50;99.90;;;;;;6296716;22;47542;-73
2023/01/18 13:26:29;;;;;;;5.80;1.73;;;5.40;99.90;;;;;;6301766;22;37505;-74
2023/01/18 13:29:18;;;;;;;8.10;2.03;;;5.30;99.90;;;;;;6305296;22;37247;-73
2023/01/18 13:31:45;;;;;;;4.13;2.23;;;5.20;99.90;;;;;;6303028;22;47120;-75
2023/01/18 13:34:35;;;;;;;4.20;1.83;;;5.10;99.90;;;;;;6304368;22;35911;-75
2023/01/18 13:37:05;;;;;;;3.83;1.80;;;5.00;99.90;;;;;;6274651;22;38084;-74
2023/01/18 13:39:41;;;;;;;5.77;1.90;;;5.00;99.90;;;;;;6298617;22;38608;-74
2023/01/18 13:42:20;;;;;;;6.50;1.67;;;5.00;99.90;;;;;;6302222;22;37867;-75
2023/01/18 13:44:48;;;;;;;2.63;1.50;;;4.90;99.90;;;;;;6305217;22;36356;-74
2023/01/18 13:47:44;;;;;;;5.17;1.23;;;4.90;99.90;;;;;;6307314;22;38751;-74
2023/01/18 13:50:36;;;;;;;4.70;1.10;;;4.90;99.90;;;;;;6304477;22;37309;-75